createdAt,value
2018-12-27T00:01:01.800Z,101577.52
2018-12-27T00:02:07.761Z,101576.27
2018-12-27T00:03:13.670Z,101579.75
2018-12-27T00:04:19.568Z,101582.34
2018-12-27T00:05:25.266Z,101581.08
2018-12-27T00:06:31.206Z,101575.06
2018-12-27T00:07:37.154Z,101570.70
2018-12-27T00:08:43.088Z,101572.92
2018-12-27T00:09:49.007Z,101579.41
2018-12-27T00:10:54.958Z,101575.84
2018-12-27T00:12:00.883Z,101577.97
2018-12-27T00:13:06.582Z,101576.30
2018-12-27T00:14:12.484Z,101581.02
2018-12-27T00:15:18.466Z,101577.97
2018-12-27T00:16:24.416Z,101579.78
2018-12-27T00:17:30.355Z,101575.48
2018-12-27T00:18:36.297Z,101572.02
2018-12-27T00:19:42.274Z,101573.66
2018-12-27T00:20:48.211Z,101572.77
2018-12-27T00:21:54.132Z,101571.52
2018-12-27T00:23:00.061Z,101570.19
2018-12-27T00:24:05.989Z,101571.88
2018-12-27T00:25:11.532Z,101571.39
2018-12-27T00:26:17.498Z,101567.97
2018-12-27T00:27:23.533Z,101572.73
2018-12-27T00:28:29.503Z,101570.59
2018-12-27T00:29:35.443Z,101570.18
2018-12-27T00:30:41.554Z,101570.25
2018-12-27T00:31:47.629Z,101568.52
2018-12-27T00:32:53.743Z,101568.53
2018-12-27T00:33:59.811Z,101565.89
2018-12-27T00:35:05.922Z,101568.55
2018-12-27T00:36:12.059Z,101569.42
2018-12-27T00:37:18.448Z,101568.55
2018-12-27T00:38:24.502Z,101565.97
2018-12-27T00:39:30.574Z,101566.89
2018-12-27T00:40:36.668Z,101560.86
2018-12-27T00:41:42.768Z,101569.52
2018-12-27T00:42:48.878Z,101566.45
2018-12-27T00:43:54.911Z,101565.13
2018-12-27T00:45:00.992Z,101563.86
2018-12-27T00:46:07.046Z,101561.63
2018-12-27T00:47:13.084Z,101559.88
2018-12-27T00:48:19.124Z,101562.50
2018-12-27T00:49:26.264Z,101562.51
2018-12-27T00:50:32.262Z,101558.11
2018-12-27T00:51:38.271Z,101561.55
2018-12-27T00:52:44.389Z,101560.23
2018-12-27T00:53:50.452Z,101558.11
2018-12-27T00:54:56.518Z,101556.35
2018-12-27T00:56:02.610Z,101556.80
2018-12-27T00:57:08.664Z,101554.64
2018-12-27T00:58:14.717Z,101560.16
2018-12-27T00:59:20.768Z,101558.41
2018-12-27T01:00:27.397Z,101558.87
2018-12-27T01:01:34.297Z,101557.63
2018-12-27T01:02:40.470Z,101556.30
2018-12-27T01:03:46.526Z,101557.67
2018-12-27T01:04:52.617Z,101549.46
2018-12-27T01:05:58.693Z,101550.33
2018-12-27T01:07:04.705Z,101545.03
2018-12-27T01:08:10.761Z,101547.64
2018-12-27T01:09:16.807Z,101547.59
2018-12-27T01:10:22.988Z,101548.45
2018-12-27T01:11:29.111Z,101539.91
2018-12-27T01:12:35.157Z,101547.31
2018-12-27T01:13:41.261Z,101540.33
2018-12-27T01:14:47.317Z,101542.52
2018-12-27T01:15:53.381Z,101543.92
2018-12-27T01:16:59.508Z,101543.92
2018-12-27T01:18:05.585Z,101553.47
2018-12-27T01:19:11.673Z,101546.86
2018-12-27T01:20:17.716Z,101548.63
2018-12-27T01:21:23.756Z,101551.29
2018-12-27T01:22:29.777Z,101545.66
2018-12-27T01:23:35.800Z,101547.33
2018-12-27T01:24:41.792Z,101545.13
2018-12-27T01:25:47.797Z,101545.59
2018-12-27T01:26:53.904Z,101543.83
2018-12-27T01:27:59.963Z,101543.29
2018-12-27T01:29:06.066Z,101539.41
2018-12-27T01:30:12.162Z,101538.14
2018-12-27T01:31:18.234Z,101548.14
2018-12-27T01:32:24.337Z,101550.30
2018-12-27T01:33:30.475Z,101550.82
2018-12-27T01:34:36.536Z,101551.70
2018-12-27T01:35:42.557Z,101550.78
2018-12-27T01:36:48.589Z,101549.45
2018-12-27T01:37:54.693Z,101550.33
2018-12-27T01:39:00.736Z,101548.23
2018-12-27T01:40:06.753Z,101545.62
2018-12-27T01:41:12.841Z,101554.27
2018-12-27T01:42:18.899Z,101548.19
2018-12-27T01:43:24.965Z,101551.19
2018-12-27T01:44:31.017Z,101550.81
2018-12-27T01:45:37.028Z,101550.25
2018-12-27T01:46:43.119Z,101549.88
2018-12-27T01:47:49.156Z,101551.19
2018-12-27T01:48:55.222Z,101547.68
2018-12-27T01:50:01.335Z,101546.35
2018-12-27T01:51:07.732Z,101544.28
2018-12-27T01:52:13.808Z,101543.42
2018-12-27T01:53:19.858Z,101542.13
2018-12-27T01:54:25.933Z,101530.41
2018-12-27T01:55:31.983Z,101531.66
2018-12-27T01:56:38.048Z,101536.92
2018-12-27T01:57:44.134Z,101531.75
2018-12-27T01:58:50.231Z,101539.13
2018-12-27T01:59:56.289Z,101528.70
2018-12-27T02:01:02.303Z,101532.63
2018-12-27T02:02:07.338Z,101529.48
2018-12-27T02:03:12.358Z,101531.22
2018-12-27T02:04:17.396Z,101531.27
2018-12-27T02:05:23.432Z,101522.99
2018-12-27T02:06:29.533Z,101533.38
2018-12-27T02:07:35.601Z,101534.64
2018-12-27T02:08:41.688Z,101532.49
2018-12-27T02:09:47.714Z,101529.45
2018-12-27T02:10:53.739Z,101529.94
2018-12-27T02:11:59.737Z,101530.31
2018-12-27T02:13:05.753Z,101530.23
2018-12-27T02:14:11.813Z,101529.00
2018-12-27T02:15:17.849Z,101524.26
2018-12-27T02:16:23.873Z,101522.97
2018-12-27T02:17:29.960Z,101522.96
2018-12-27T02:18:35.977Z,101516.91
2018-12-27T02:19:42.099Z,101520.35
2018-12-27T02:20:48.184Z,101515.56
2018-12-27T02:21:54.333Z,101519.48
2018-12-27T02:23:00.385Z,101515.19
2018-12-27T02:24:06.499Z,101524.25
2018-12-27T02:25:12.605Z,101519.45
2018-12-27T02:26:18.669Z,101509.59
2018-12-27T02:27:24.720Z,101510.42
2018-12-27T02:28:30.792Z,101513.09
2018-12-27T02:29:36.874Z,101503.52
2018-12-27T02:30:42.945Z,101503.12
2018-12-27T02:31:49.026Z,101505.20
2018-12-27T02:32:55.085Z,101499.09
2018-12-27T02:34:01.165Z,101492.64
2018-12-27T02:35:07.249Z,101494.45
2018-12-27T02:36:13.435Z,101491.45
2018-12-27T02:37:19.495Z,101480.08
2018-12-27T02:38:25.580Z,101475.75
2018-12-27T02:39:31.677Z,101474.81
2018-12-27T02:40:37.759Z,101469.24
2018-12-27T02:41:43.847Z,101464.52
2018-12-27T02:42:49.906Z,101461.83
2018-12-27T02:43:55.996Z,101450.91
2018-12-27T02:45:02.052Z,101452.72
2018-12-27T02:46:08.126Z,101444.88
2018-12-27T02:47:14.273Z,101446.15
2018-12-27T02:48:20.336Z,101448.38
2018-12-27T02:49:26.755Z,101450.11
2018-12-27T02:50:32.877Z,101451.80
2018-12-27T02:51:38.902Z,101452.25
2018-12-27T02:52:45.119Z,101451.31
2018-12-27T02:53:51.149Z,101453.11
2018-12-27T02:54:57.235Z,101452.33
2018-12-27T02:56:03.288Z,101446.27
2018-12-27T02:57:09.450Z,101452.33
2018-12-27T02:58:15.480Z,101448.76
2018-12-27T02:59:21.554Z,101448.77
2018-12-27T03:00:27.643Z,101452.81
2018-12-27T03:01:33.747Z,101450.17
2018-12-27T03:02:39.780Z,101451.48
2018-12-27T03:03:45.817Z,101460.60
2018-12-27T03:04:51.918Z,101457.59
2018-12-27T03:05:57.939Z,101456.76
2018-12-27T03:07:04.000Z,101467.19
2018-12-27T03:08:10.066Z,101463.25
2018-12-27T03:09:16.147Z,101458.06
2018-12-27T03:10:22.264Z,101462.36
2018-12-27T03:11:28.325Z,101464.56
2018-12-27T03:12:34.338Z,101461.48
2018-12-27T03:13:40.503Z,101449.38
2018-12-27T03:14:46.568Z,101457.14
2018-12-27T03:15:52.613Z,101442.73
2018-12-27T03:16:58.641Z,101443.52
2018-12-27T03:18:04.862Z,101437.83
2018-12-27T03:19:10.516Z,101439.91
2018-12-27T03:20:16.578Z,101438.61
2018-12-27T03:21:22.633Z,101439.05
2018-12-27T03:22:28.713Z,101434.80
2018-12-27T03:23:34.757Z,101423.97
2018-12-27T03:24:40.841Z,101424.41
2018-12-27T03:25:46.901Z,101420.98
2018-12-27T03:26:52.983Z,101423.54
2018-12-27T03:27:59.092Z,101425.78
2018-12-27T03:29:05.148Z,101425.47
2018-12-27T03:30:11.226Z,101429.74
2018-12-27T03:31:17.281Z,101421.42
2018-12-27T03:32:23.357Z,101424.13
2018-12-27T03:33:29.404Z,101423.61
2018-12-27T03:34:35.545Z,101416.73
2018-12-27T03:35:41.604Z,101415.84
2018-12-27T03:36:47.684Z,101411.12
2018-12-27T03:37:53.733Z,101407.27
2018-12-27T03:38:59.836Z,101415.43
2018-12-27T03:40:06.012Z,101408.90
2018-12-27T03:41:12.105Z,101411.56
2018-12-27T03:42:18.171Z,101408.94
2018-12-27T03:43:24.224Z,101402.73
2018-12-27T03:44:30.306Z,101412.33
2018-12-27T03:45:36.417Z,101409.24
2018-12-27T03:46:42.480Z,101406.08
2018-12-27T03:47:48.547Z,101403.91
2018-12-27T03:48:54.634Z,101407.61
2018-12-27T03:50:00.774Z,101404.92
2018-12-27T03:51:06.847Z,101406.20
2018-12-27T03:52:12.903Z,101409.70
2018-12-27T03:53:18.960Z,101412.38
2018-12-27T03:54:25.041Z,101409.45
2018-12-27T03:55:31.132Z,101416.34
2018-12-27T03:56:37.208Z,101415.12
2018-12-27T03:57:43.262Z,101414.72
2018-12-27T03:58:49.286Z,101419.91
2018-12-27T03:59:55.356Z,101419.03
2018-12-27T04:01:01.378Z,101423.81
2018-12-27T04:02:07.417Z,101422.02
2018-12-27T04:03:13.466Z,101417.23
2018-12-27T04:04:19.501Z,101412.06
2018-12-27T04:05:25.553Z,101419.92
2018-12-27T04:06:31.602Z,101416.86
2018-12-27T04:07:37.666Z,101414.31
2018-12-27T04:08:43.679Z,101420.37
2018-12-27T04:09:49.679Z,101420.71
2018-12-27T04:10:55.712Z,101423.80
2018-12-27T04:12:01.770Z,101424.16
2018-12-27T04:13:07.798Z,101420.59
2018-12-27T04:14:13.844Z,101418.69
2018-12-27T04:15:19.789Z,101417.74
2018-12-27T04:16:25.711Z,101412.95
2018-12-27T04:17:31.601Z,101411.67
2018-12-27T04:18:37.517Z,101411.23
2018-12-27T04:19:43.450Z,101406.47
2018-12-27T04:20:49.443Z,101408.61
2018-12-27T04:21:55.089Z,101409.94
2018-12-27T04:23:00.992Z,101405.70
2018-12-27T04:24:06.545Z,101403.11
2018-12-27T04:25:11.846Z,101403.50
2018-12-27T04:26:17.647Z,101404.83
2018-12-27T04:27:23.626Z,101410.41
2018-12-27T04:28:29.528Z,101408.86
2018-12-27T04:29:35.452Z,101397.98
2018-12-27T04:30:40.722Z,101406.03
2018-12-27T04:31:45.951Z,101398.34
2018-12-27T04:32:51.197Z,101403.50
2018-12-27T04:33:56.470Z,101399.97
2018-12-27T04:35:01.713Z,101403.50
2018-12-27T04:36:06.958Z,101402.73
2018-12-27T04:37:12.146Z,101400.63
2018-12-27T04:38:18.090Z,101400.61
2018-12-27T04:39:24.606Z,101400.59
2018-12-27T04:40:30.568Z,101402.78
2018-12-27T04:41:35.781Z,101404.53
2018-12-27T04:42:40.988Z,101397.62
2018-12-27T04:43:46.204Z,101394.05
2018-12-27T04:44:52.125Z,101391.45
2018-12-27T04:45:58.079Z,101394.81
2018-12-27T04:47:04.037Z,101386.57
2018-12-27T04:48:09.987Z,101386.90
2018-12-27T04:49:15.880Z,101386.84
2018-12-27T04:50:21.826Z,101390.48
2018-12-27T04:51:27.753Z,101383.25
2018-12-27T04:52:33.677Z,101384.98
2018-12-27T04:53:39.671Z,101385.70
2018-12-27T04:54:45.568Z,101386.49
2018-12-27T04:55:51.557Z,101385.94
2018-12-27T04:56:57.490Z,101386.78
2018-12-27T04:58:03.419Z,101388.92
2018-12-27T04:59:09.304Z,101390.19
2018-12-27T05:00:15.216Z,101397.54
2018-12-27T05:01:21.145Z,101388.85
2018-12-27T05:02:27.084Z,101394.87
2018-12-27T05:03:33.066Z,101390.25
2018-12-27T05:04:39.637Z,101398.38
2018-12-27T05:05:45.686Z,101394.97
2018-12-27T05:06:51.728Z,101401.88
2018-12-27T05:07:57.729Z,101398.94
2018-12-27T05:09:03.085Z,101401.62
2018-12-27T05:10:08.686Z,101397.75
2018-12-27T05:11:14.645Z,101403.02
2018-12-27T05:12:20.560Z,101401.38
2018-12-27T05:13:26.465Z,101402.22
2018-12-27T05:14:32.381Z,101403.45
2018-12-27T05:15:38.321Z,101402.59
2018-12-27T05:16:44.196Z,101397.70
2018-12-27T05:17:50.121Z,101399.46
2018-12-27T05:18:56.083Z,101398.50
2018-12-27T05:20:02.009Z,101399.89
2018-12-27T05:21:07.971Z,101408.58
2018-12-27T05:22:13.909Z,101407.13
2018-12-27T05:23:19.850Z,101404.58
2018-12-27T05:24:25.732Z,101403.74
2018-12-27T05:25:31.621Z,101406.75
2018-12-27T05:26:37.577Z,101402.00
2018-12-27T05:27:43.493Z,101404.75
2018-12-27T05:28:49.406Z,101406.46
2018-12-27T05:29:55.380Z,101403.88
2018-12-27T05:31:01.293Z,101406.51
2018-12-27T05:32:07.237Z,101402.25
2018-12-27T05:33:13.167Z,101414.30
2018-12-27T05:34:25.982Z,101412.54
2018-12-27T05:35:25.140Z,101405.48
2018-12-27T05:36:31.136Z,101408.55
2018-12-27T05:37:37.085Z,101400.84
2018-12-27T05:38:42.995Z,101400.70
2018-12-27T05:39:48.916Z,101399.77
2018-12-27T05:40:54.853Z,101401.54
2018-12-27T05:42:00.815Z,101397.72
2018-12-27T05:43:06.707Z,101399.46
2018-12-27T05:44:12.914Z,101401.72
2018-12-27T05:45:18.832Z,101396.42
2018-12-27T05:46:24.738Z,101398.50
2018-12-27T05:47:30.634Z,101389.04
2018-12-27T05:48:36.682Z,101393.91
2018-12-27T05:49:43.222Z,101394.22
2018-12-27T05:50:49.093Z,101394.34
2018-12-27T05:51:55.041Z,101396.53
2018-12-27T05:53:00.975Z,101397.38
2018-12-27T05:54:06.892Z,101402.11
2018-12-27T05:55:12.422Z,101395.11
2018-12-27T05:56:18.344Z,101401.91
2018-12-27T05:57:24.271Z,101396.36
2018-12-27T05:58:30.193Z,101401.98
2018-12-27T05:59:36.194Z,101395.83
2018-12-27T06:00:42.105Z,101400.64
2018-12-27T06:01:48.029Z,101390.69
2018-12-27T06:02:53.975Z,101399.68
2018-12-27T06:03:59.948Z,101398.09
2018-12-27T06:05:05.870Z,101397.34
2018-12-27T06:06:11.776Z,101398.50
2018-12-27T06:07:17.698Z,101393.81
2018-12-27T06:08:23.615Z,101391.40
2018-12-27T06:09:29.585Z,101392.83
2018-12-27T06:10:35.566Z,101388.41
2018-12-27T06:11:42.330Z,101395.71
2018-12-27T06:12:48.274Z,101383.61
2018-12-27T06:13:54.221Z,101384.92
2018-12-27T06:15:00.195Z,101383.23
2018-12-27T06:16:06.176Z,101387.47
2018-12-27T06:17:12.140Z,101390.02
2018-12-27T06:18:18.061Z,101388.28
2018-12-27T06:19:24.030Z,101390.43
2018-12-27T06:20:29.982Z,101385.16
2018-12-27T06:21:35.954Z,101391.30
2018-12-27T06:22:42.005Z,101381.72
2018-12-27T06:23:47.933Z,101382.52
2018-12-27T06:24:53.858Z,101388.25
2018-12-27T06:25:59.436Z,101387.88
2018-12-27T06:27:05.430Z,101391.27
2018-12-27T06:28:11.366Z,101391.39
2018-12-27T06:29:17.380Z,101394.03
2018-12-27T06:30:23.259Z,101390.13
2018-12-27T06:31:30.757Z,101395.86
2018-12-27T06:32:37.585Z,101393.78
2018-12-27T06:33:43.583Z,101391.18
2018-12-27T06:34:49.566Z,101383.83
2018-12-27T06:35:55.668Z,101388.51
2018-12-27T06:37:01.763Z,101383.69
2018-12-27T06:38:07.754Z,101382.00
2018-12-27T06:39:13.754Z,101388.92
2018-12-27T06:40:19.811Z,101382.74
2018-12-27T06:41:25.920Z,101383.53
2018-12-27T06:42:32.000Z,101383.02
2018-12-27T06:43:38.051Z,101385.16
2018-12-27T06:44:44.051Z,101383.94
2018-12-27T06:45:50.157Z,101388.72
2018-12-27T06:46:56.189Z,101378.00
2018-12-27T06:48:02.205Z,101384.41
2018-12-27T06:49:08.227Z,101384.91
2018-12-27T06:50:14.127Z,101389.30
2018-12-27T06:51:20.741Z,101385.95
2018-12-27T06:52:27.437Z,101384.62
2018-12-27T06:53:34.306Z,101383.72
2018-12-27T06:54:40.265Z,101384.67
2018-12-27T06:55:46.183Z,101382.84
2018-12-27T06:56:52.163Z,101387.56
2018-12-27T06:57:58.649Z,101391.67
2018-12-27T06:59:04.806Z,101390.78
2018-12-27T07:00:10.745Z,101390.41
2018-12-27T07:01:16.669Z,101396.34
2018-12-27T07:02:22.635Z,101386.89
2018-12-27T07:03:29.817Z,101386.42
2018-12-27T07:04:35.757Z,101388.05
2018-12-27T07:05:41.765Z,101389.30
2018-12-27T07:06:47.676Z,101389.33
2018-12-27T07:07:54.178Z,101389.03
2018-12-27T07:09:01.542Z,101391.14
2018-12-27T07:10:07.113Z,101390.86
2018-12-27T07:11:14.468Z,101392.69
2018-12-27T07:12:21.056Z,101391.84
2018-12-27T07:13:27.057Z,101394.83
2018-12-27T07:14:33.502Z,101390.98
2018-12-27T07:15:39.560Z,101394.45
2018-12-27T07:16:46.289Z,101389.16
2018-12-27T07:17:52.883Z,101387.75
2018-12-27T07:18:58.857Z,101391.27
2018-12-27T07:20:04.173Z,101389.64
2018-12-27T07:21:10.831Z,101390.03
2018-12-27T07:22:17.353Z,101396.48
2018-12-27T07:23:23.289Z,101390.91
2018-12-27T07:24:29.208Z,101405.75
2018-12-27T07:25:35.855Z,101399.70
2018-12-27T07:26:42.349Z,101405.31
2018-12-27T07:27:49.664Z,101408.41
2018-12-27T07:28:56.570Z,101405.35
2018-12-27T07:30:04.316Z,101412.76
2018-12-27T07:31:11.580Z,101412.66
2018-12-27T07:32:18.548Z,101411.75
2018-12-27T07:33:25.679Z,101410.54
2018-12-27T07:34:32.680Z,101406.16
2018-12-27T07:35:39.175Z,101411.83
2018-12-27T07:36:45.303Z,101407.49
2018-12-27T07:37:51.272Z,101407.33
2018-12-27T07:38:58.582Z,101411.64
2018-12-27T07:40:05.765Z,101411.78
2018-12-27T07:41:12.142Z,101417.42
2018-12-27T07:42:18.967Z,101408.78
2018-12-27T07:43:25.444Z,101413.07
2018-12-27T07:44:31.987Z,101406.53
2018-12-27T07:45:39.052Z,101416.94
2018-12-27T07:46:47.219Z,101409.63
2018-12-27T07:47:57.654Z,101410.97
2018-12-27T07:49:04.416Z,101408.73
2018-12-27T07:50:12.311Z,101402.16
2018-12-27T07:51:19.502Z,101396.94
2018-12-27T07:52:27.472Z,101396.56
2018-12-27T07:53:34.615Z,101399.61
2018-12-27T07:54:41.692Z,101404.41
2018-12-27T07:55:47.608Z,101403.14
2018-12-27T07:56:53.537Z,101402.32
2018-12-27T07:57:59.488Z,101404.01
2018-12-27T07:59:05.377Z,101403.16
2018-12-27T08:00:10.964Z,101408.84
2018-12-27T08:01:16.899Z,101413.63
2018-12-27T08:02:22.840Z,101410.95
2018-12-27T08:03:28.801Z,101406.67
2018-12-27T08:04:34.791Z,101416.19
2018-12-27T08:05:40.718Z,101412.76
2018-12-27T08:06:46.682Z,101417.06
2018-12-27T08:07:52.617Z,101413.19
2018-12-27T08:08:58.584Z,101416.20
2018-12-27T08:10:05.645Z,101419.98
2018-12-27T08:11:12.558Z,101421.78
2018-12-27T08:12:20.356Z,101420.46
2018-12-27T08:13:27.218Z,101421.78
2018-12-27T08:14:34.529Z,101426.96
2018-12-27T08:15:42.407Z,101426.97
2018-12-27T08:16:49.632Z,101425.67
2018-12-27T08:17:56.716Z,101424.34
2018-12-27T08:19:04.718Z,101424.34
2018-12-27T08:20:11.657Z,101428.30
2018-12-27T08:21:18.641Z,101433.45
2018-12-27T08:22:25.753Z,101430.02
2018-12-27T08:23:32.849Z,101428.72
2018-12-27T08:24:40.230Z,101424.39
2018-12-27T08:25:47.363Z,101427.80
2018-12-27T08:26:55.520Z,101427.42
2018-12-27T08:28:04.200Z,101428.77
2018-12-27T08:29:13.132Z,101428.27
2018-12-27T08:30:21.022Z,101424.39
2018-12-27T08:31:28.345Z,101420.47
2018-12-27T08:32:35.361Z,101423.03
2018-12-27T08:33:42.621Z,101424.37
2018-12-27T08:34:51.136Z,101429.13
2018-12-27T08:35:58.185Z,101427.42
2018-12-27T08:37:05.417Z,101424.83
2018-12-27T08:38:12.293Z,101423.54
2018-12-27T08:39:19.346Z,101425.69
2018-12-27T08:40:26.802Z,101423.58
2018-12-27T08:41:33.796Z,101423.53
2018-12-27T08:42:41.830Z,101418.31
2018-12-27T08:43:49.008Z,101420.91
2018-12-27T08:44:55.863Z,101419.20
2018-12-27T08:46:02.734Z,101419.19
2018-12-27T08:47:09.635Z,101419.70
2018-12-27T08:48:16.623Z,101413.27
2018-12-27T08:49:24.255Z,101411.09
2018-12-27T08:50:31.358Z,101413.22
2018-12-27T08:51:38.295Z,101416.66
2018-12-27T08:52:46.049Z,101416.64
2018-12-27T08:53:54.457Z,101417.91
2018-12-27T08:55:00.928Z,101424.02
2018-12-27T08:56:06.883Z,101417.53
2018-12-27T08:57:12.841Z,101419.27
2018-12-27T08:58:18.808Z,101421.88
2018-12-27T08:59:24.776Z,101425.80
2018-12-27T09:00:30.765Z,101414.11
2018-12-27T09:01:36.680Z,101419.27
2018-12-27T09:02:43.011Z,101418.43
2018-12-27T09:03:49.058Z,101424.48
2018-12-27T09:04:55.004Z,101423.55
2018-12-27T09:06:00.940Z,101432.26
2018-12-27T09:07:06.871Z,101432.22
2018-12-27T09:08:12.818Z,101426.98
2018-12-27T09:09:18.801Z,101431.77
2018-12-27T09:10:25.572Z,101428.73
2018-12-27T09:11:31.519Z,101432.66
2018-12-27T09:12:37.486Z,101435.68
2018-12-27T09:13:43.511Z,101423.06
2018-12-27T09:14:49.437Z,101432.20
2018-12-27T09:15:55.386Z,101425.66
2018-12-27T09:17:01.333Z,101422.66
2018-12-27T09:18:07.332Z,101427.88
2018-12-27T09:19:13.330Z,101429.55
2018-12-27T09:20:19.337Z,101424.80
2018-12-27T09:21:25.232Z,101423.06
2018-12-27T09:22:31.339Z,101427.42
2018-12-27T09:23:37.294Z,101433.00
2018-12-27T09:24:43.287Z,101425.50
2018-12-27T09:25:49.251Z,101427.64
2018-12-27T09:26:55.165Z,101420.72
2018-12-27T09:28:01.329Z,101419.00
2018-12-27T09:29:07.523Z,101414.66
2018-12-27T09:30:13.079Z,101421.56
2018-12-27T09:31:19.073Z,101418.53
2018-12-27T09:32:25.018Z,101421.61
2018-12-27T09:33:31.029Z,101428.95
2018-12-27T09:34:37.307Z,101439.00
2018-12-27T09:35:43.343Z,101427.70
2018-12-27T09:36:50.384Z,101430.17
2018-12-27T09:37:55.280Z,101436.20
2018-12-27T09:39:00.874Z,101432.78
2018-12-27T09:40:06.445Z,101435.34
2018-12-27T09:41:12.483Z,101435.42
2018-12-27T09:42:18.388Z,101436.75
2018-12-27T09:43:24.360Z,101437.58
2018-12-27T09:44:30.341Z,101434.06
2018-12-27T09:45:36.273Z,101433.17
2018-12-27T09:46:42.251Z,101436.15
2018-12-27T09:47:48.219Z,101431.84
2018-12-27T09:48:54.156Z,101427.37
2018-12-27T09:50:00.137Z,101426.04
2018-12-27T09:51:06.118Z,101420.81
2018-12-27T09:52:12.059Z,101422.13
2018-12-27T09:53:17.985Z,101424.27
2018-12-27T09:54:23.893Z,101423.83
2018-12-27T09:55:29.501Z,101422.96
2018-12-27T09:56:35.637Z,101422.52
2018-12-27T09:57:41.594Z,101424.28
2018-12-27T09:58:47.599Z,101425.15
2018-12-27T09:59:53.542Z,101426.03
2018-12-27T10:00:59.474Z,101425.11
2018-12-27T10:02:05.409Z,101429.92
2018-12-27T10:03:11.401Z,101420.73
2018-12-27T10:04:17.352Z,101426.87
2018-12-27T10:05:23.310Z,101425.42
2018-12-27T10:06:29.260Z,101422.36
2018-12-27T10:07:35.163Z,101418.42
2018-12-27T10:08:41.080Z,101413.61
2018-12-27T10:09:47.019Z,101413.58
2018-12-27T10:10:52.942Z,101412.67
2018-12-27T10:11:58.892Z,101410.47
2018-12-27T10:13:04.875Z,101415.16
2018-12-27T10:14:10.818Z,101409.97
2018-12-27T10:15:16.718Z,101410.00
2018-12-27T10:16:22.606Z,101409.40
2018-12-27T10:17:28.512Z,101405.05
2018-12-27T10:18:34.473Z,101407.19
2018-12-27T10:19:40.392Z,101405.19
2018-12-27T10:20:47.116Z,101395.53
2018-12-27T10:21:53.087Z,101398.42
2018-12-27T10:22:59.033Z,101395.27
2018-12-27T10:24:04.641Z,101395.11
2018-12-27T10:25:10.608Z,101393.48
2018-12-27T10:26:16.595Z,101391.19
2018-12-27T10:27:22.524Z,101395.50
2018-12-27T10:28:28.516Z,101391.36
2018-12-27T10:29:34.485Z,101387.05
2018-12-27T10:30:40.428Z,101384.44
2018-12-27T10:31:46.380Z,101387.67
2018-12-27T10:32:52.326Z,101382.74
2018-12-27T10:33:58.225Z,101380.92
2018-12-27T10:35:03.511Z,101377.33
2018-12-27T10:36:09.440Z,101379.84
2018-12-27T10:37:15.342Z,101371.84
2018-12-27T10:38:21.337Z,101371.52
2018-12-27T10:39:27.316Z,101368.44
2018-12-27T10:40:33.256Z,101371.95
2018-12-27T10:41:39.197Z,101374.48
2018-12-27T10:42:45.077Z,101364.76
2018-12-27T10:43:50.980Z,101365.06
2018-12-27T10:44:56.899Z,101364.10
2018-12-27T10:46:02.824Z,101368.97
2018-12-27T10:47:08.377Z,101363.63
2018-12-27T10:48:14.328Z,101358.45
2018-12-27T10:49:20.242Z,101356.45
2018-12-27T10:50:26.456Z,101356.58
2018-12-27T10:51:32.460Z,101356.09
2018-12-27T10:52:38.374Z,101352.28
2018-12-27T10:53:44.292Z,101350.06
2018-12-27T10:54:50.560Z,101349.80
2018-12-27T10:55:56.572Z,101342.45
2018-12-27T10:57:02.461Z,101342.59
2018-12-27T10:58:08.414Z,101337.67
2018-12-27T10:59:14.398Z,101332.56
2018-12-27T11:00:20.406Z,101327.48
2018-12-27T11:01:26.324Z,101327.28
2018-12-27T11:02:32.240Z,101330.23
2018-12-27T11:03:38.150Z,101326.80
2018-12-27T11:04:44.108Z,101328.35
2018-12-27T11:05:49.723Z,101324.49
2018-12-27T11:06:55.331Z,101320.77
2018-12-27T11:08:01.241Z,101322.80
2018-12-27T11:09:06.465Z,101329.31
2018-12-27T11:10:12.482Z,101326.18
2018-12-27T11:11:18.435Z,101330.48
2018-12-27T11:12:24.302Z,101319.70
2018-12-27T11:13:30.157Z,101316.86
2018-12-27T11:14:36.081Z,101318.83
2018-12-27T11:15:42.137Z,101329.36
2018-12-27T11:16:48.073Z,101324.20
2018-12-27T11:17:53.994Z,101322.89
2018-12-27T11:18:59.951Z,101320.39
2018-12-27T11:20:05.204Z,101320.33
2018-12-27T11:21:11.146Z,101318.01
2018-12-27T11:22:17.081Z,101320.90
2018-12-27T11:23:22.996Z,101310.87
2018-12-27T11:24:28.946Z,101312.70
2018-12-27T11:25:34.910Z,101305.31
2018-12-27T11:26:40.764Z,101305.50
2018-12-27T11:27:46.673Z,101304.73
2018-12-27T11:28:52.598Z,101306.11
2018-12-27T11:29:58.518Z,101300.33
2018-12-27T11:31:04.470Z,101299.61
2018-12-27T11:32:10.358Z,101293.91
2018-12-27T11:33:16.246Z,101304.48
2018-12-27T11:34:22.146Z,101299.17
2018-12-27T11:35:28.075Z,101296.08
2018-12-27T11:36:33.987Z,101292.45
2018-12-27T11:37:39.932Z,101291.25
2018-12-27T11:38:46.654Z,101289.79
2018-12-27T11:39:52.592Z,101291.37
2018-12-27T11:40:58.522Z,101295.22
2018-12-27T11:42:04.485Z,101291.69
2018-12-27T11:43:10.406Z,101292.16
2018-12-27T11:44:16.312Z,101288.59
2018-12-27T11:45:22.244Z,101286.36
2018-12-27T11:46:28.150Z,101293.05
2018-12-27T11:47:34.037Z,101287.72
2018-12-27T11:48:39.946Z,101281.14
2018-12-27T11:49:45.931Z,101281.39
2018-12-27T11:50:51.881Z,101276.84
2018-12-27T11:51:57.852Z,101283.23
2018-12-27T11:53:03.775Z,101277.53
2018-12-27T11:54:09.709Z,101275.48
2018-12-27T11:55:15.590Z,101271.63
2018-12-27T11:56:21.548Z,101273.14
2018-12-27T11:57:27.466Z,101274.34
2018-12-27T11:58:33.385Z,101275.37
2018-12-27T11:59:39.394Z,101274.98
2018-12-27T12:00:45.304Z,101281.52
2018-12-27T12:01:51.258Z,101279.88
2018-12-27T12:02:58.835Z,101277.02
2018-12-27T12:04:03.141Z,101279.08
2018-12-27T12:05:08.376Z,101270.05
2018-12-27T12:06:14.349Z,101275.98
2018-12-27T12:07:20.269Z,101273.86
2018-12-27T12:08:26.157Z,101274.13
2018-12-27T12:09:32.067Z,101273.69
2018-12-27T12:10:38.034Z,101273.69
2018-12-27T12:11:43.973Z,101271.83
2018-12-27T12:12:49.882Z,101271.45
2018-12-27T12:13:55.819Z,101275.05
2018-12-27T12:15:01.797Z,101266.95
2018-12-27T12:16:07.719Z,101268.95
2018-12-27T12:17:13.626Z,101268.13
2018-12-27T12:18:19.610Z,101267.34
2018-12-27T12:19:25.581Z,101267.27
2018-12-27T12:20:31.506Z,101267.39
2018-12-27T12:21:37.476Z,101262.59
2018-12-27T12:22:43.458Z,101262.48
2018-12-27T12:23:49.349Z,101265.20
2018-12-27T12:24:55.344Z,101258.84
2018-12-27T12:26:01.272Z,101258.69
2018-12-27T12:27:07.206Z,101259.18
2018-12-27T12:28:13.083Z,101258.25
2018-12-27T12:29:19.006Z,101257.53
2018-12-27T12:30:24.937Z,101261.88
2018-12-27T12:31:30.863Z,101262.48
2018-12-27T12:32:36.792Z,101260.85
2018-12-27T12:33:42.681Z,101262.37
2018-12-27T12:34:48.280Z,101261.06